createdAt,value
2019-03-24T00:00:39.768Z,6.87
2019-03-24T00:03:16.538Z,7.30
2019-03-24T00:05:53.206Z,5.73
2019-03-24T00:08:29.121Z,5.50
2019-03-24T00:11:04.958Z,6.00
2019-03-24T00:13:40.876Z,5.30
2019-03-24T00:16:16.618Z,5.03
2019-03-24T00:18:52.338Z,5.00
2019-03-24T00:21:27.928Z,5.93
2019-03-24T00:24:03.786Z,5.30
2019-03-24T00:26:39.386Z,5.20
2019-03-24T00:29:15.120Z,5.13
2019-03-24T00:31:50.980Z,4.90
2019-03-24T00:34:28.567Z,4.80
2019-03-24T00:37:04.433Z,6.37
2019-03-24T00:39:40.202Z,4.90
2019-03-24T00:42:15.902Z,6.13
2019-03-24T00:44:51.650Z,4.50
2019-03-24T00:47:27.337Z,6.50
2019-03-24T00:50:05.219Z,5.43
2019-03-24T00:52:41.026Z,5.53
2019-03-24T00:55:18.262Z,4.90
2019-03-24T00:57:55.036Z,5.10
2019-03-24T01:00:49.221Z,6.37
2019-03-24T01:03:24.924Z,5.90
2019-03-24T01:06:01.824Z,7.03
2019-03-24T01:08:37.654Z,7.70
2019-03-24T01:11:13.333Z,9.03
2019-03-24T01:13:49.110Z,9.37
2019-03-24T01:16:24.884Z,8.60
2019-03-24T01:19:00.665Z,8.33
2019-03-24T01:21:37.253Z,7.40
2019-03-24T01:24:13.094Z,8.67
2019-03-24T01:26:48.771Z,7.13
2019-03-24T01:29:24.582Z,8.40
2019-03-24T01:32:00.299Z,6.70
2019-03-24T01:34:36.144Z,7.20
2019-03-24T01:37:11.805Z,7.20
2019-03-24T01:39:47.528Z,7.47
2019-03-24T01:42:23.209Z,6.70
2019-03-24T01:44:58.893Z,6.03
2019-03-24T01:47:34.707Z,7.10
2019-03-24T01:50:11.089Z,7.53
2019-03-24T01:52:46.787Z,5.90
2019-03-24T01:55:25.992Z,5.80
2019-03-24T01:58:01.845Z,5.50
2019-03-24T02:00:37.727Z,4.80
2019-03-24T02:03:13.461Z,5.60
2019-03-24T02:05:49.303Z,5.10
2019-03-24T02:08:25.008Z,5.70
2019-03-24T02:11:00.712Z,4.73
2019-03-24T02:13:37.240Z,5.30
2019-03-24T02:16:13.046Z,5.70
2019-03-24T02:18:48.756Z,4.10
2019-03-24T02:21:24.460Z,4.70
2019-03-24T02:24:00.109Z,5.07
2019-03-24T02:26:35.887Z,6.00
2019-03-24T02:29:11.657Z,5.87
2019-03-24T02:31:47.396Z,6.23
2019-03-24T02:34:23.095Z,6.80
2019-03-24T02:36:59.796Z,4.33
2019-03-24T02:39:35.540Z,5.73
2019-03-24T02:42:11.156Z,5.83
2019-03-24T02:44:46.744Z,5.43
2019-03-24T02:47:22.454Z,5.07
2019-03-24T02:49:58.326Z,4.80
2019-03-24T02:52:34.901Z,5.90
2019-03-24T02:55:12.131Z,5.50
2019-03-24T02:57:48.667Z,5.47
2019-03-24T03:00:24.458Z,4.57
2019-03-24T03:03:00.167Z,4.47
2019-03-24T03:05:36.035Z,6.77
2019-03-24T03:08:11.767Z,5.13
2019-03-24T03:10:47.521Z,6.47
2019-03-24T03:13:23.232Z,5.73
2019-03-24T03:15:58.818Z,6.10
2019-03-24T03:18:34.555Z,5.57
2019-03-24T03:21:10.225Z,5.40
2019-03-24T03:23:45.803Z,5.70
2019-03-24T03:26:21.494Z,5.13
2019-03-24T03:28:57.201Z,6.03
2019-03-24T03:31:32.969Z,4.77
2019-03-24T03:34:08.599Z,5.00
2019-03-24T03:36:44.340Z,4.90
2019-03-24T03:39:20.169Z,4.57
2019-03-24T03:41:55.852Z,4.73
2019-03-24T03:44:31.533Z,4.70
2019-03-24T03:47:07.320Z,5.20
2019-03-24T03:49:42.998Z,4.87
2019-03-24T03:52:18.690Z,4.70
2019-03-24T03:54:55.278Z,4.50
2019-03-24T03:57:31.058Z,4.80
2019-03-24T04:00:08.460Z,4.27
2019-03-24T04:02:46.913Z,5.27
2019-03-24T04:05:22.681Z,4.43
2019-03-24T04:07:58.501Z,4.03
2019-03-24T04:10:34.391Z,5.10
2019-03-24T04:13:10.229Z,4.27
2019-03-24T04:15:47.987Z,4.73
2019-03-24T04:18:24.000Z,4.27
2019-03-24T04:20:59.700Z,4.70
2019-03-24T04:23:35.442Z,4.87
2019-03-24T04:26:11.340Z,4.80
2019-03-24T04:28:47.703Z,5.30
2019-03-24T04:31:23.437Z,5.10
2019-03-24T04:33:59.154Z,4.77
2019-03-24T04:36:34.866Z,5.83
2019-03-24T04:39:10.651Z,5.20
2019-03-24T04:41:46.282Z,4.23
2019-03-24T04:44:22.005Z,4.60
2019-03-24T04:46:57.593Z,4.43
2019-03-24T04:49:33.361Z,4.10
2019-03-24T04:52:09.095Z,4.27
2019-03-24T04:54:44.777Z,5.20
2019-03-24T04:57:20.490Z,6.00
2019-03-24T04:59:56.089Z,4.43
2019-03-24T05:02:31.832Z,4.60
2019-03-24T05:05:08.009Z,5.13
2019-03-24T05:07:43.969Z,6.53
2019-03-24T05:10:37.788Z,4.97
2019-03-24T05:13:13.549Z,4.80
2019-03-24T05:15:49.279Z,4.97
2019-03-24T05:18:25.095Z,4.23
2019-03-24T05:21:00.715Z,4.63
2019-03-24T05:23:36.522Z,5.40
2019-03-24T05:26:12.289Z,5.33
2019-03-24T05:28:50.522Z,4.33
2019-03-24T05:31:26.544Z,5.10
2019-03-24T05:34:02.375Z,5.07
2019-03-24T05:36:38.255Z,4.90
2019-03-24T05:39:14.068Z,5.30
2019-03-24T05:41:50.061Z,4.90
2019-03-24T05:44:25.913Z,4.90
2019-03-24T05:47:01.833Z,4.40
2019-03-24T05:49:37.623Z,4.63
2019-03-24T05:52:13.387Z,4.00
2019-03-24T05:54:50.143Z,4.23
2019-03-24T05:57:29.828Z,4.30
2019-03-24T06:00:06.284Z,4.20
2019-03-24T06:02:43.411Z,4.50
2019-03-24T06:05:19.044Z,4.60
2019-03-24T06:07:54.819Z,4.57
2019-03-24T06:10:30.525Z,4.77
2019-03-24T06:13:07.268Z,4.43
2019-03-24T06:15:42.952Z,4.27
2019-03-24T06:18:18.554Z,5.30
2019-03-24T06:20:54.267Z,4.10
2019-03-24T06:23:30.589Z,5.60
2019-03-24T06:26:06.436Z,4.60
2019-03-24T06:28:42.217Z,4.63
2019-03-24T06:31:18.134Z,4.50
2019-03-24T06:33:53.911Z,4.87
2019-03-24T06:36:29.578Z,3.87
2019-03-24T06:39:06.503Z,5.17
2019-03-24T06:41:42.411Z,5.10
2019-03-24T06:44:18.094Z,4.87
2019-03-24T06:46:53.824Z,5.70
2019-03-24T06:49:29.539Z,5.27
2019-03-24T06:52:05.446Z,6.25
2019-03-24T06:54:41.365Z,5.87
2019-03-24T06:57:17.572Z,5.63
2019-03-24T06:59:53.378Z,5.00
2019-03-24T07:02:29.130Z,4.57
2019-03-24T07:05:05.240Z,5.43
2019-03-24T07:07:40.926Z,4.40
2019-03-24T07:10:16.811Z,4.20
2019-03-24T07:12:52.541Z,4.10
2019-03-24T07:15:28.300Z,4.93
2019-03-24T07:18:08.432Z,5.00
2019-03-24T07:20:41.422Z,4.93
2019-03-24T07:23:17.416Z,6.00
2019-03-24T07:25:53.519Z,5.10
2019-03-24T07:28:29.289Z,5.47
2019-03-24T07:31:05.508Z,5.27
2019-03-24T07:33:41.087Z,4.17
2019-03-24T07:36:16.914Z,5.30
2019-03-24T07:38:52.775Z,5.20
2019-03-24T07:41:28.657Z,4.47
2019-03-24T07:44:04.592Z,4.23
2019-03-24T07:46:40.315Z,5.17
2019-03-24T07:49:16.312Z,4.63
2019-03-24T07:51:52.140Z,5.10
2019-03-24T07:54:27.926Z,4.90
2019-03-24T07:57:04.694Z,3.60
2019-03-24T07:59:40.477Z,5.40
2019-03-24T08:02:16.547Z,4.17
2019-03-24T08:04:53.276Z,5.13
2019-03-24T08:07:29.237Z,5.53
2019-03-24T08:10:05.822Z,4.70
2019-03-24T08:12:41.576Z,3.73
2019-03-24T08:15:17.224Z,5.17
2019-03-24T08:17:53.071Z,5.20
2019-03-24T08:20:28.826Z,4.40
2019-03-24T08:23:04.540Z,4.33
2019-03-24T08:25:40.290Z,4.13
2019-03-24T08:28:16.305Z,3.83
2019-03-24T08:30:52.115Z,3.77
2019-03-24T08:33:27.878Z,4.33
2019-03-24T08:36:04.111Z,4.40
2019-03-24T08:38:39.936Z,4.37
2019-03-24T08:41:15.763Z,4.40
2019-03-24T08:43:51.557Z,2.43
2019-03-24T08:46:27.245Z,3.20
2019-03-24T08:49:03.898Z,3.00
2019-03-24T08:51:39.730Z,3.60
2019-03-24T08:54:15.607Z,2.90
2019-03-24T08:56:53.687Z,3.07
2019-03-24T08:59:29.592Z,3.00
2019-03-24T09:02:05.403Z,2.60
2019-03-24T09:04:41.177Z,3.03
2019-03-24T09:07:16.989Z,3.53
2019-03-24T09:09:52.783Z,3.77
2019-03-24T09:12:31.094Z,3.57
2019-03-24T09:15:07.152Z,3.00
2019-03-24T09:17:43.037Z,3.20
2019-03-24T09:20:19.053Z,4.10
2019-03-24T09:22:54.866Z,3.33
2019-03-24T09:25:31.628Z,2.80
2019-03-24T09:28:09.217Z,3.03
2019-03-24T09:30:45.207Z,3.63
2019-03-24T09:33:21.007Z,3.80
2019-03-24T09:35:56.723Z,4.10
2019-03-24T09:38:32.875Z,4.97
2019-03-24T09:41:08.611Z,4.13
2019-03-24T09:43:44.509Z,3.70
2019-03-24T09:46:20.287Z,4.00
2019-03-24T09:49:03.050Z,3.60
2019-03-24T09:51:33.675Z,3.23
2019-03-24T09:54:09.586Z,3.67
2019-03-24T09:56:45.331Z,3.87
2019-03-24T09:59:21.067Z,2.90
2019-03-24T10:01:56.836Z,3.53
2019-03-24T10:04:33.447Z,4.77
2019-03-24T10:07:09.235Z,4.20
2019-03-24T10:09:46.599Z,4.40
2019-03-24T10:12:22.512Z,6.10
2019-03-24T10:14:58.209Z,5.30
2019-03-24T10:17:35.068Z,5.33
2019-03-24T10:20:11.253Z,4.80
2019-03-24T10:22:47.060Z,5.03
2019-03-24T10:25:25.721Z,5.17
2019-03-24T10:28:01.976Z,4.13
2019-03-24T10:30:37.706Z,5.17
2019-03-24T10:33:13.476Z,5.63
2019-03-24T10:35:49.345Z,7.00
2019-03-24T10:38:25.171Z,5.57
2019-03-24T10:41:04.691Z,5.20
2019-03-24T10:43:41.985Z,4.70
2019-03-24T10:46:17.754Z,4.90
2019-03-24T10:48:53.690Z,4.80
2019-03-24T10:51:30.633Z,4.73
2019-03-24T10:54:06.497Z,4.93
2019-03-24T10:56:42.219Z,4.37
2019-03-24T10:59:17.972Z,4.17
2019-03-24T11:01:53.673Z,4.90
2019-03-24T11:04:30.332Z,4.70
2019-03-24T11:07:06.244Z,4.57
2019-03-24T11:09:42.214Z,3.40
2019-03-24T11:12:17.963Z,3.53
2019-03-24T11:14:55.387Z,4.23
2019-03-24T11:17:31.099Z,3.87
2019-03-24T11:20:08.076Z,3.90
2019-03-24T11:22:43.900Z,3.40
2019-03-24T11:25:19.829Z,3.40
2019-03-24T11:27:55.665Z,2.73
2019-03-24T11:30:31.403Z,3.03
2019-03-24T11:33:07.352Z,2.90
2019-03-24T11:35:43.074Z,2.97
2019-03-24T11:38:20.301Z,2.97
2019-03-24T11:40:56.100Z,2.43
2019-03-24T11:43:31.895Z,3.33
2019-03-24T11:46:07.633Z,3.17
2019-03-24T11:48:45.237Z,2.63
2019-03-24T11:51:23.885Z,3.20
2019-03-24T11:53:59.943Z,2.23
2019-03-24T11:56:35.727Z,2.40
2019-03-24T11:59:11.520Z,3.10
2019-03-24T12:01:47.348Z,1.83
2019-03-24T12:04:23.229Z,2.00
2019-03-24T12:06:59.133Z,2.50
2019-03-24T12:09:34.986Z,1.80
2019-03-24T12:12:10.772Z,1.53
2019-03-24T12:14:46.702Z,1.70
2019-03-24T12:17:22.579Z,2.10
2019-03-24T12:19:58.462Z,2.07
2019-03-24T12:22:34.350Z,1.60
2019-03-24T12:25:10.865Z,2.27
2019-03-24T12:27:46.647Z,2.00
2019-03-24T12:30:22.586Z,2.23
2019-03-24T12:33:01.135Z,2.23
2019-03-24T12:35:36.964Z,2.60
2019-03-24T12:38:12.878Z,2.30
2019-03-24T12:40:48.745Z,2.67
2019-03-24T12:43:24.541Z,1.87
2019-03-24T12:46:00.426Z,2.03
2019-03-24T12:48:36.185Z,1.97
2019-03-24T12:51:12.504Z,2.53
2019-03-24T12:53:48.336Z,2.07
2019-03-24T12:56:24.207Z,2.90
2019-03-24T12:59:00.128Z,2.60
2019-03-24T13:01:35.975Z,2.03
2019-03-24T13:04:11.805Z,2.77
2019-03-24T13:06:47.742Z,3.00
2019-03-24T13:09:23.520Z,2.33
2019-03-24T13:11:59.374Z,2.43
2019-03-24T13:14:36.049Z,2.47
2019-03-24T13:17:11.798Z,2.50
2019-03-24T13:19:47.551Z,1.80
2019-03-24T13:22:23.439Z,2.07
2019-03-24T13:25:09.928Z,2.00
2019-03-24T13:27:45.702Z,2.10
2019-03-24T13:30:21.648Z,2.03
2019-03-24T13:32:57.375Z,2.00
2019-03-24T13:35:34.157Z,2.17
2019-03-24T13:38:09.940Z,2.57
2019-03-24T13:40:45.667Z,2.87
2019-03-24T13:43:24.386Z,1.57
2019-03-24T13:46:00.117Z,2.00
2019-03-24T13:48:35.910Z,2.27
2019-03-24T13:51:11.810Z,2.43
2019-03-24T13:53:47.754Z,2.80
2019-03-24T13:56:23.497Z,2.07
2019-03-24T13:58:59.336Z,2.70
2019-03-24T14:01:35.118Z,2.03
2019-03-24T14:04:10.897Z,2.03
2019-03-24T14:06:46.684Z,2.87
2019-03-24T14:09:22.516Z,1.90
2019-03-24T14:11:58.246Z,2.57
2019-03-24T14:14:34.060Z,3.57
2019-03-24T14:17:15.044Z,2.93
2019-03-24T14:19:50.774Z,2.20
2019-03-24T14:22:26.548Z,3.07
2019-03-24T14:25:02.423Z,3.20
2019-03-24T14:27:38.199Z,2.20
2019-03-24T14:30:14.520Z,3.27
2019-03-24T14:32:50.160Z,2.57
2019-03-24T14:35:27.757Z,2.70
2019-03-24T14:38:03.604Z,2.53
2019-03-24T14:40:39.478Z,2.50
2019-03-24T14:43:16.474Z,2.07
2019-03-24T14:45:52.218Z,2.87
2019-03-24T14:48:27.937Z,2.30
2019-03-24T14:51:03.727Z,2.30
2019-03-24T14:53:39.449Z,1.93
2019-03-24T14:56:15.222Z,2.37
2019-03-24T14:58:50.969Z,1.93
2019-03-24T15:01:26.718Z,2.43
2019-03-24T15:04:06.663Z,2.50
2019-03-24T15:06:42.436Z,1.80
2019-03-24T15:09:18.156Z,2.20
2019-03-24T15:11:53.943Z,1.87
2019-03-24T15:14:29.662Z,1.67
2019-03-24T15:17:05.435Z,1.80
2019-03-24T15:19:41.197Z,2.17
2019-03-24T15:22:17.032Z,2.00
2019-03-24T15:24:54.893Z,2.50
2019-03-24T15:27:30.632Z,2.30
2019-03-24T15:30:06.602Z,2.37
2019-03-24T15:32:42.368Z,2.23
2019-03-24T15:35:18.072Z,1.83
2019-03-24T15:38:06.636Z,1.63
2019-03-24T15:40:31.266Z,2.03
2019-03-24T15:43:07.435Z,1.90
2019-03-24T15:45:43.230Z,1.77
2019-03-24T15:48:18.948Z,1.77
2019-03-24T15:50:54.872Z,2.37
2019-03-24T15:53:30.697Z,2.40
2019-03-24T15:56:10.898Z,2.07
2019-03-24T15:58:46.712Z,2.30
2019-03-24T16:01:22.465Z,2.67
2019-03-24T16:03:58.210Z,1.50
2019-03-24T16:06:34.841Z,1.87
2019-03-24T16:09:10.896Z,2.10
2019-03-24T16:11:46.658Z,2.30
2019-03-24T16:14:22.582Z,1.93
2019-03-24T16:16:58.359Z,2.27
2019-03-24T16:19:34.450Z,1.97
2019-03-24T16:22:10.310Z,2.23
2019-03-24T16:24:46.066Z,1.70
2019-03-24T16:27:22.015Z,2.37
2019-03-24T16:29:57.984Z,1.87
2019-03-24T16:32:33.863Z,2.37
2019-03-24T16:35:09.976Z,2.30
2019-03-24T16:37:45.753Z,1.70
2019-03-24T16:40:21.500Z,1.70
2019-03-24T16:42:57.421Z,2.40
2019-03-24T16:45:49.278Z,1.40
2019-03-24T16:48:36.178Z,1.87
2019-03-24T16:51:03.170Z,2.20
2019-03-24T16:53:41.038Z,1.13
2019-03-24T16:56:16.892Z,1.10
2019-03-24T16:58:53.765Z,1.27
2019-03-24T17:01:29.576Z,1.40
2019-03-24T17:04:05.867Z,1.70
2019-03-24T17:06:41.788Z,1.57
2019-03-24T17:09:17.575Z,1.47
2019-03-24T17:11:53.633Z,1.20
2019-03-24T17:14:30.365Z,1.20
2019-03-24T17:17:06.245Z,1.20
2019-03-24T17:19:42.168Z,1.80
2019-03-24T17:22:17.941Z,1.60
2019-03-24T17:24:53.924Z,2.20
2019-03-24T17:27:30.687Z,1.33
2019-03-24T17:30:07.614Z,1.90
2019-03-24T17:32:43.593Z,1.47
2019-03-24T17:35:21.003Z,1.37
2019-03-24T17:37:57.564Z,1.40
2019-03-24T17:40:38.838Z,1.30
2019-03-24T17:43:12.777Z,1.00
2019-03-24T17:45:48.679Z,1.50
2019-03-24T17:48:24.557Z,0.77
2019-03-24T17:51:00.678Z,0.97
2019-03-24T17:53:36.481Z,1.33
2019-03-24T17:56:12.274Z,1.20
2019-03-24T17:58:48.126Z,1.23
2019-03-24T18:01:23.918Z,1.40
2019-03-24T18:03:59.705Z,1.30
2019-03-24T18:06:36.333Z,1.50
2019-03-24T18:09:12.158Z,0.97
2019-03-24T18:11:47.924Z,1.50
2019-03-24T18:14:24.745Z,1.60
2019-03-24T18:17:00.665Z,1.50
2019-03-24T18:19:36.537Z,1.60
2019-03-24T18:22:12.263Z,2.10
2019-03-24T18:24:48.035Z,1.50
2019-03-24T18:27:26.157Z,1.60
2019-03-24T18:30:03.639Z,1.30
2019-03-24T18:32:39.936Z,1.70
2019-03-24T18:35:15.543Z,2.00
2019-03-24T18:37:51.305Z,2.30
2019-03-24T18:40:27.619Z,1.50
2019-03-24T18:43:03.389Z,1.90
2019-03-24T18:45:39.353Z,1.63
2019-03-24T18:48:15.126Z,2.33
2019-03-24T18:50:50.863Z,2.27
2019-03-24T18:53:26.598Z,2.07
2019-03-24T18:56:02.363Z,1.80
2019-03-24T18:58:38.143Z,1.43
2019-03-24T19:01:14.887Z,2.03
2019-03-24T19:03:50.605Z,1.90
2019-03-24T19:06:27.115Z,2.08
2019-03-24T19:09:03.113Z,3.70
2019-03-24T19:11:38.960Z,3.00
2019-03-24T19:14:14.734Z,2.27
2019-03-24T19:16:50.477Z,2.80
2019-03-24T19:19:26.290Z,2.53
2019-03-24T19:22:03.384Z,2.83
2019-03-24T19:24:39.125Z,2.33
2019-03-24T19:27:14.839Z,1.97
2019-03-24T19:29:50.581Z,2.03
2019-03-24T19:32:26.180Z,2.60
2019-03-24T19:35:01.912Z,2.27
2019-03-24T19:37:39.403Z,2.17
2019-03-24T19:40:29.733Z,2.20
2019-03-24T19:43:05.505Z,2.00
2019-03-24T19:45:41.252Z,2.10
2019-03-24T19:48:17.945Z,2.30
2019-03-24T19:50:53.739Z,2.77
2019-03-24T19:53:29.466Z,2.50
2019-03-24T19:56:05.178Z,2.63
2019-03-24T19:58:40.927Z,2.80
2019-03-24T20:01:17.679Z,3.37
2019-03-24T20:03:53.608Z,3.70
2019-03-24T20:06:29.268Z,3.07
2019-03-24T20:09:07.435Z,3.37
2019-03-24T20:11:43.461Z,3.27
2019-03-24T20:14:19.291Z,3.57
2019-03-24T20:16:55.118Z,2.83
2019-03-24T20:19:31.904Z,2.40
2019-03-24T20:22:13.203Z,2.50
2019-03-24T20:24:48.958Z,2.97
2019-03-24T20:27:26.281Z,2.87
2019-03-24T20:30:04.243Z,2.57
2019-03-24T20:32:43.475Z,3.00
2019-03-24T20:35:20.469Z,3.10
2019-03-24T20:37:56.213Z,2.93
2019-03-24T20:40:32.181Z,2.87
2019-03-24T20:43:07.991Z,2.37
2019-03-24T20:45:43.883Z,2.83
2019-03-24T20:48:19.705Z,3.23
2019-03-24T20:50:55.450Z,3.70
2019-03-24T20:53:31.151Z,3.57
2019-03-24T20:56:06.985Z,3.30
2019-03-24T20:58:42.722Z,2.70
2019-03-24T21:01:19.517Z,3.63
2019-03-24T21:03:55.340Z,3.60
2019-03-24T21:06:31.081Z,2.77
2019-03-24T21:09:08.943Z,3.00
2019-03-24T21:11:46.831Z,3.47
2019-03-24T21:14:22.566Z,3.77
2019-03-24T21:16:58.522Z,3.60
2019-03-24T21:19:35.216Z,3.83
2019-03-24T21:22:10.944Z,2.67
2019-03-24T21:24:46.673Z,3.10
2019-03-24T21:27:22.519Z,3.57
2019-03-24T21:29:58.688Z,3.20
2019-03-24T21:32:34.553Z,3.30
2019-03-24T21:35:10.567Z,3.37
2019-03-24T21:37:46.584Z,4.00
2019-03-24T21:40:22.269Z,3.57
2019-03-24T21:42:58.009Z,3.10
2019-03-24T21:45:33.867Z,3.23
2019-03-24T21:48:09.715Z,3.60
2019-03-24T21:50:46.285Z,3.50
2019-03-24T21:53:22.135Z,3.53
2019-03-24T21:55:57.856Z,3.03
2019-03-24T21:58:33.815Z,3.43
2019-03-24T22:01:09.526Z,3.90
2019-03-24T22:03:45.319Z,3.50
2019-03-24T22:06:21.033Z,3.00
2019-03-24T22:08:56.681Z,3.40
2019-03-24T22:11:32.405Z,3.27
2019-03-24T22:14:08.005Z,3.80
2019-03-24T22:16:43.796Z,3.03
2019-03-24T22:19:19.434Z,3.60
2019-03-24T22:21:55.099Z,3.83
2019-03-24T22:24:30.847Z,2.60
2019-03-24T22:27:06.417Z,3.67
2019-03-24T22:29:42.177Z,2.80
2019-03-24T22:32:17.881Z,3.60
2019-03-24T22:34:53.641Z,3.10
2019-03-24T22:37:29.244Z,3.60
2019-03-24T22:40:07.248Z,3.23
2019-03-24T22:42:43.535Z,3.10
2019-03-24T22:45:19.216Z,3.20
2019-03-24T22:47:54.988Z,3.13
2019-03-24T22:50:30.694Z,2.80
2019-03-24T22:53:06.340Z,2.70
2019-03-24T22:55:42.037Z,2.80
2019-03-24T22:58:17.800Z,3.10
2019-03-24T23:00:55.409Z,2.70
2019-03-24T23:03:31.259Z,3.23
2019-03-24T23:06:07.220Z,3.13
2019-03-24T23:08:42.948Z,2.80
2019-03-24T23:11:18.530Z,2.43
2019-03-24T23:13:54.375Z,2.50
2019-03-24T23:16:30.072Z,3.60
2019-03-24T23:19:05.685Z,2.70
2019-03-24T23:21:41.384Z,2.90
2019-03-24T23:24:35.735Z,2.33
2019-03-24T23:27:11.714Z,2.47
2019-03-24T23:29:47.593Z,2.53
2019-03-24T23:32:25.736Z,3.10
2019-03-24T23:35:03.997Z,2.57
2019-03-24T23:37:41.694Z,2.53
2019-03-24T23:40:18.441Z,2.40
2019-03-24T23:42:55.025Z,2.70
2019-03-24T23:45:30.746Z,3.13
2019-03-24T23:48:10.621Z,3.20
2019-03-24T23:50:46.382Z,3.37
2019-03-24T23:53:22.209Z,2.90
2019-03-24T23:55:58.026Z,2.70
2019-03-24T23:58:40.688Z,2.30
